Wrangell, AK

8:39 AM AKDT on October 22, 2017 (GMT -0800)
Wrangell

Weather History for PAWG - February, 2013

Change the Weather History Date:

Tuesday, February 26, 2013

  Actual Average Record
Temperature  
Mean Temperature 38 °F -  
Max Temperature 41 °F 40 °F 61 °F (1992)
Min Temperature 35 °F 29 °F 2 °F (1972)
Degree Days  
Heating Degree Days 27    
Moisture  
Dew Point 30 °F    
Average Humidity 72    
Maximum Humidity 81    
Minimum Humidity 61    
Precipitation  
Precipitation 0.12 in - - ()
Sea Level Pressure  
Sea Level Pressure 29.75 in    
Wind  
Wind Speed 15 mph (ESE)    
Max Wind Speed 22 mph    
Max Gust Speed 29 mph    
Visibility 10 miles    
Events      
Averages and records for this station are not official NWS values.
T = Trace of Precipitation, MM = Missing Value Source: NWS Daily Summary

Daily Weather History Graph

Daily Weather History Graph

Search for Another Location

Airport or City:

Trip Planner

Search our weather history database for the weather conditions in past years. The results will help you decide how hot, cold, wet, or windy it might be!

Date:

Astronomy

Feb. 26, 2013 Rise Set
Actual Time 6:48 AM AKST 5:17 PM AKST
Civil Twilight 6:10 AM AKST 5:55 PM AKST
Nautical Twilight 5:26 AM AKST 6:39 PM AKST
Astronomical Twilight 4:42 AM AKST 7:23 PM AKST
Moon 7:08 PM AKST (2/26) 6:34 AM AKST (2/26)
Length of Visible Light 11h 45m
Length of Day
10h 29m
Full, 99% of the Moon is Illuminated
Feb 26
Full
Mar 4
Last Quarter
Mar 11
New
Mar 19
First Quarter
Mar 27
Full

Hourly Weather History & Observations

Time (AKST) Temp. Windchill Dew Point Humidity Pressure Visibility Wind Dir Wind Speed Gust Speed Precip Events Conditions
12:16 AM 37.4 °F 26.6 °F 26.6 °F 65% 29.88 in 9.0 mi SE 21.9 mph 28.8 mph N/A   Overcast
12:36 AM 35.6 °F 25.9 °F 28.4 °F 75% 29.88 in 10.0 mi SE 16.1 mph 23.0 mph N/A   Overcast
12:56 AM 37.4 °F 27.5 °F 28.4 °F 70% 29.87 in 10.0 mi ESE 18.4 mph 21.9 mph N/A   Overcast
1:16 AM 37.4 °F 28.2 °F 28.4 °F 70% 29.87 in 10.0 mi ESE 16.1 mph 21.9 mph N/A   Overcast
1:36 AM 37.4 °F 27.8 °F 30.2 °F 75% 29.86 in 10.0 mi East 17.3 mph - N/A   Overcast
1:56 AM 37.4 °F 28.5 °F 28.4 °F 70% 29.85 in 10.0 mi ESE 15.0 mph 20.7 mph N/A   Overcast
2:16 AM 37.4 °F 28.9 °F 30.2 °F 75% 29.84 in 10.0 mi East 13.8 mph 19.6 mph N/A   Overcast
2:36 AM 37.4 °F 29.3 °F 30.2 °F 75% 29.83 in 10.0 mi East 12.7 mph - N/A   Overcast
2:56 AM 39.2 °F 30.8 °F 28.4 °F 65% 29.82 in 10.0 mi ESE 15.0 mph 21.9 mph N/A   Overcast
3:16 AM 39.2 °F 29.8 °F 28.4 °F 65% 29.80 in 10.0 mi ESE 18.4 mph - N/A   Overcast
3:36 AM 39.2 °F 30.2 °F 28.4 °F 65% 29.79 in 10.0 mi East 17.3 mph - N/A   Mostly Cloudy
3:56 AM 39.2 °F 30.8 °F 28.4 °F 65% 29.79 in 10.0 mi East 15.0 mph - N/A   Overcast
4:16 AM 39.2 °F 31.2 °F 28.4 °F 65% 29.78 in 10.0 mi ESE 13.8 mph 19.6 mph N/A   Overcast
4:36 AM 39.2 °F 30.5 °F 28.4 °F 65% 29.76 in 10.0 mi East 16.1 mph 19.6 mph N/A   Overcast
4:56 AM 39.2 °F 31.6 °F 28.4 °F 65% 29.76 in 10.0 mi ESE 12.7 mph - N/A   Overcast
5:16 AM 39.2 °F 31.2 °F 28.4 °F 65% 29.75 in 10.0 mi ESE 13.8 mph 19.6 mph N/A   Overcast
5:36 AM 39.2 °F 30.2 °F 28.4 °F 65% 29.75 in 10.0 mi SE 17.3 mph 21.9 mph N/A   Overcast
5:56 AM 39.2 °F 30.5 °F 28.4 °F 65% 29.73 in 10.0 mi SE 16.1 mph 20.7 mph N/A   Overcast
6:16 AM 39.2 °F 29.8 °F 28.4 °F 65% 29.71 in 10.0 mi ESE 18.4 mph 23.0 mph N/A   Overcast
6:36 AM 39.2 °F 29.3 °F 26.6 °F 61% 29.70 in 10.0 mi ESE 20.7 mph 24.2 mph N/A   Overcast
6:56 AM 39.2 °F 30.5 °F 28.4 °F 65% 29.70 in 10.0 mi ESE 16.1 mph 25.3 mph N/A   Overcast
7:16 AM 39.2 °F 30.2 °F 26.6 °F 61% 29.70 in 10.0 mi SE 17.3 mph 23.0 mph N/A   Overcast
7:36 AM 39.2 °F 31.6 °F 28.4 °F 65% 29.70 in 10.0 mi ESE 12.7 mph 20.7 mph N/A   Overcast
7:56 AM 39.2 °F 32.5 °F 30.2 °F 70% 29.70 in 10.0 mi ESE 10.4 mph - N/A   Overcast
8:16 AM 39.2 °F 33.0 °F 28.4 °F 65% 29.69 in 10.0 mi ESE 9.2 mph - N/A   Overcast
8:36 AM 39.2 °F 30.8 °F 28.4 °F 65% 29.69 in 10.0 mi SE 15.0 mph - N/A   Overcast
8:56 AM 39.2 °F 32.5 °F 30.2 °F 70% 29.69 in 10.0 mi ESE 10.4 mph 16.1 mph N/A   Overcast
9:16 AM 39.2 °F 30.8 °F 30.2 °F 70% 29.69 in 10.0 mi SE 15.0 mph 21.9 mph N/A   Overcast
9:36 AM 37.4 °F 28.2 °F 30.2 °F 75% 29.69 in 10.0 mi ESE 16.1 mph - N/A   Overcast
9:56 AM 37.4 °F 29.3 °F 30.2 °F 75% 29.69 in 10.0 mi ESE 12.7 mph - 0.01 in   Overcast
10:16 AM 37.4 °F 28.9 °F 30.2 °F 75% 29.69 in 10.0 mi East 13.8 mph - N/A   Overcast
10:36 AM 37.4 °F 28.9 °F 30.2 °F 75% 29.69 in 10.0 mi East 13.8 mph - N/A   Overcast
10:56 AM 37.4 °F 29.3 °F 32.0 °F 81% 29.69 in 10.0 mi East 12.7 mph - N/A   Overcast
11:16 AM 39.2 °F 32.5 °F 32.0 °F 75% 29.70 in 10.0 mi East 10.4 mph - N/A   Overcast
11:36 AM 39.2 °F 30.5 °F 30.2 °F 70% 29.70 in 10.0 mi SE 16.1 mph - 0.01 in   Overcast
11:56 AM 37.4 °F 28.9 °F 32.0 °F 81% 29.69 in 10.0 mi ESE 13.8 mph - 0.01 in   Overcast
12:16 PM 37.4 °F 30.3 °F 32.0 °F 81% 29.69 in 10.0 mi ESE 10.4 mph - 0.01 in   Overcast
12:36 PM 39.2 °F 31.6 °F 30.2 °F 70% 29.70 in 10.0 mi ESE 12.7 mph - 0.02 in   Overcast
12:56 PM 39.2 °F 30.2 °F 30.2 °F 70% 29.69 in 10.0 mi ESE 17.3 mph 20.7 mph 0.02 in   Overcast
1:16 PM 41.0 °F 33.1 °F 30.2 °F 65% 29.70 in 10.0 mi SE 15.0 mph 20.7 mph N/A   Overcast
1:36 PM 39.2 °F 31.2 °F 30.2 °F 70% 29.71 in 10.0 mi SSE 13.8 mph 19.6 mph N/A   Overcast
1:56 PM 41.0 °F 32.5 °F 28.4 °F 61% 29.71 in 10.0 mi SSE 17.3 mph - N/A   Overcast
2:16 PM 39.2 °F 32.0 °F 30.2 °F 70% 29.73 in 10.0 mi SSE 11.5 mph 18.4 mph N/A   Overcast
2:36 PM 39.2 °F 33.0 °F 30.2 °F 70% 29.73 in 10.0 mi SE 9.2 mph - 0.01 in   Overcast
2:56 PM 39.2 °F 32.5 °F 32.0 °F 75% 29.73 in 7.0 mi SE 10.4 mph - 0.01 in   Overcast
3:16 PM 39.2 °F 33.6 °F 33.8 °F 81% 29.72 in 7.0 mi ESE 8.1 mph - N/A   Overcast
3:36 PM 39.2 °F 31.2 °F 30.2 °F 70% 29.72 in 7.0 mi SSE 13.8 mph 18.4 mph N/A   Overcast
3:56 PM 37.4 °F 32.1 °F 30.2 °F 75% 29.74 in 7.0 mi South 6.9 mph - N/A   Overcast
4:16 PM 39.2 °F 35.9 °F 30.2 °F 70% 29.73 in 7.0 mi SW 4.6 mph 20.7 mph N/A   Overcast
4:36 PM 39.2 °F 32.0 °F 30.2 °F 70% 29.73 in 7.0 mi SE 11.5 mph - N/A   Overcast
4:56 PM 37.4 °F 28.9 °F 32.0 °F 81% 29.73 in 10.0 mi ESE 13.8 mph - 0.02 in   Overcast
5:16 PM 37.4 °F 28.9 °F 32.0 °F 81% 29.74 in 10.0 mi ESE 13.8 mph - N/A   Overcast
5:36 PM 37.4 °F 29.3 °F 32.0 °F 81% 29.74 in 10.0 mi ESE 12.7 mph 19.6 mph 0.02 in   Overcast
5:56 PM 37.4 °F 28.5 °F 32.0 °F 81% 29.74 in 10.0 mi ESE 15.0 mph 19.6 mph 0.02 in   Overcast
6:16 PM 37.4 °F 29.8 °F 32.0 °F 81% 29.76 in 10.0 mi ESE 11.5 mph 17.3 mph N/A   Overcast
6:36 PM 37.4 °F 30.8 °F 32.0 °F 81% 29.75 in 10.0 mi East 9.2 mph - 0.01 in   Overcast
6:56 PM 37.4 °F 27.5 °F 30.2 °F 75% 29.75 in 10.0 mi ESE 18.4 mph 24.2 mph 0.01 in   Overcast
7:16 PM 37.4 °F 28.9 °F 30.2 °F 75% 29.76 in 10.0 mi SE 13.8 mph 21.9 mph N/A   Overcast
7:36 PM 37.4 °F 30.3 °F 32.0 °F 81% 29.76 in 10.0 mi East 10.4 mph 18.4 mph N/A   Overcast
7:56 PM 37.4 °F 29.8 °F 32.0 °F 81% 29.76 in 10.0 mi East 11.5 mph - N/A   Overcast
8:16 PM 37.4 °F 28.9 °F 32.0 °F 81% 29.77 in 10.0 mi East 13.8 mph - N/A   Overcast
8:36 PM 37.4 °F 28.9 °F 32.0 °F 81% 29.77 in 10.0 mi East 13.8 mph 20.7 mph N/A   Overcast
8:56 PM 37.4 °F 29.8 °F 32.0 °F 81% 29.77 in 10.0 mi East 11.5 mph - 0.01 in   Overcast
9:16 PM 37.4 °F 29.3 °F 32.0 °F 81% 29.77 in 10.0 mi East 12.7 mph - N/A   Overcast
9:36 PM 37.4 °F 28.9 °F 32.0 °F 81% 29.77 in 10.0 mi ESE 13.8 mph - N/A   Overcast
9:56 PM 37.4 °F 28.2 °F 32.0 °F 81% 29.76 in 10.0 mi ESE 16.1 mph - N/A   Overcast
10:16 PM 37.4 °F 28.2 °F 30.2 °F 75% 29.76 in 10.0 mi ESE 16.1 mph - N/A   Overcast
10:36 PM 37.4 °F 29.3 °F 28.4 °F 70% 29.77 in 10.0 mi SE 12.7 mph 21.9 mph N/A   Overcast
10:56 PM 37.4 °F 27.8 °F 30.2 °F 75% 29.77 in 10.0 mi ESE 17.3 mph 21.9 mph N/A   Overcast
11:16 PM 37.4 °F 28.5 °F 30.2 °F 75% 29.78 in 10.0 mi ESE 15.0 mph 23.0 mph N/A   Mostly Cloudy
11:36 PM 37.4 °F 27.8 °F 30.2 °F 75% 29.78 in 10.0 mi ESE 17.3 mph - N/A   Overcast
11:56 PM 37.4 °F 27.8 °F 30.2 °F 75% 29.77 in 10.0 mi ESE 17.3 mph 21.9 mph 0.01 in   Overcast